Latest Coastal Weather Observations for Cape Sorell

IDT60701

Issued at 7:45 pm EDT Saturday 22 November 2014 (issued every 10 minutes, with the page automatically refreshed every 10 minutes)

About coastal observations | Map of coastal stations | Coastal observations for TAS | Marine services | Other Formats
Station Details ID: 097000 Name: CAPE SORELL Lat: -42.20 Lon: 145.17 Height: 19.3 m
Data from the previous 72 hours. | See also: Recent months at Cape Sorell
Date/Time
EDT
Temp

°C
Wind Pressure Rain
since 9am
mm
Weather Cloud Vis
km
Sea
Height
m
Swell
Dir
 
Speed
knots
Gust
knots
hPa Trend Height
m
Period
s
Dir
22/07:30pm 16.6 NW 2 4 1003.3 - 0.8 - - - - - - -
22/07:00pm 16.8 WNW 7 9 1003.5 - 0.8 - - - - - - -
22/06:30pm 16.9 NNW 9 12 1003.5 - 0.8 - - - - - - -
22/06:00pm 16.9 NNW 8 12 1003.7 - 0.8 - - - - - - -
22/05:30pm 16.6 N 8 10 1003.7 - 0.8 - - - - - - -
22/05:00pm 16.3 N 11 14 1003.6 - 0.8 - - - - - - -
22/04:30pm 17.1 N 12 14 1003.6 - 0.6 - - - - - - -
22/04:00pm 16.8 N 15 18 1004.0 - 0.6 - - - - - - -
22/03:30pm 17.2 NNW 14 18 1004.5 - 0.6 - - - - - - -
22/03:00pm 17.2 NNW 14 19 1004.7 - 0.6 - - - - - - -
22/02:30pm 17.1 N 15 19 1004.7 - 0.6 - - - - - - -
22/02:00pm 16.1 N 11 14 1004.9 - 0.6 - - - - - - -
22/01:30pm 16.2 N 7 9 1004.9 - 0.6 - - - - - - -
22/01:00pm 17.1 N 10 12 1005.4 - 0.6 - - - - - - -
22/12:30pm 16.9 N 7 9 1005.6 - 0.6 - - - - - - -
22/12:00pm 15.9 N 12 14 1006.1 - 0.6 - - - - - - -
22/11:30am 15.1 N 15 17 1006.4 - 0.6 - - - - - - -
22/11:00am 14.8 N 13 15 1006.5 - 0.6 - - - - - - -
22/10:30am 13.7 N 16 19 1007.1 - 0.4 - - - - - - -
22/10:00am 13.2 NNE 19 22 1006.6 - 0.4 - - - - - - -
22/09:30am 12.9 N 20 23 1006.6 - 0.4 - - - - - - -
22/09:00am 12.9 N 21 24 1007.1 - 1.0 Rain - - - - - -
22/08:30am 12.8 NNE 21 25 1006.9 - 0.8 - - - - - - -
22/08:00am 12.6 NNE 20 24 1007.1 - 0.8 - - - - - - -
22/07:30am 12.5 N 26 30 1007.2 - 0.8 - - - - - - -
22/07:00am 12.9 N 25 31 1007.5 - 0.2 - - - - - - -
22/06:30am 13.3 N 23 28 1007.6 - 0.0 - - - - - - -
22/06:00am 13.3 N 23 28 1007.6 - 0.0 - - - - - - -
22/05:30am 13.7 N 20 26 1007.5 - 0.0 - - - - - - -
22/05:00am 13.9 N 18 23 1007.3 - 0.0 - - - - - - -
22/04:30am 14.0 N 18 22 1006.9 - 0.0 - - - - - - -
22/04:00am 13.8 N 17 21 1006.7 - 0.0 - - - - - - -
22/03:30am 14.0 N 18 24 1006.7 - 0.0 - - - - - - -
22/03:00am 14.2 N 20 25 1006.6 - 0.0 - - - - - - -
22/02:30am 14.2 N 16 21 1006.8 - 0.0 - - - - - - -
22/02:00am 13.7 N 13 19 1007.2 - 0.0 - - - - - - -
22/01:30am 12.8 N 16 18 1007.7 - 0.0 - - - - - - -
22/01:00am 12.7 N 17 20 1008.0 - 0.0 - - - - - - -
22/12:30am 12.8 NNE 16 21 1008.3 - 0.0 - - - - - - -
22/12:00am 12.9 N 17 20 1008.8 - 0.0 - - - - - - -
 
Date/Time
EDT
Temp

°C
Wind Pressure Rain
since 9am
mm
Weather Cloud Vis
km
Sea
Height
m
Swell
Dir
 
Speed
knots
Gust
knots
hPa Trend Height
m
Period
s
Dir
21/11:30pm 12.7 N 17 21 1009.1 - 0.0 - - - - - - -
21/11:00pm 12.9 N 20 26 1009.5 - 0.0 - - - - - - -
21/10:30pm 13.0 N 20 24 1009.9 - 0.0 - - - - - - -
21/10:00pm 12.9 N 18 24 1010.4 - 0.0 - - - - - - -
21/09:30pm 12.8 N 17 24 1010.3 - 0.0 - - - - - - -
21/09:00pm 12.7 N 15 19 1010.3 - 0.0 - - - - - - -
21/08:30pm 12.5 N 15 19 1010.2 - 0.0 - - - - - - -
21/08:00pm 12.5 NNW 12 16 1010.1 - 0.0 - - - - - - -
21/07:30pm 12.8 NNW 10 13 1009.7 - 0.0 - - - - - - -
21/07:00pm 13.0 NNW 9 14 1009.6 - 0.0 - - - - - - -
21/06:30pm 13.6 NNW 7 11 1009.3 - 0.0 - - - - - - -
21/06:00pm 14.1 NNW 7 9 1009.3 - 0.0 - - - - - - -
21/05:30pm 14.4 NW 7 10 1009.4 - 0.0 - - - - - - -
21/05:00pm 15.1 NW 6 9 1009.1 - 0.0 - - - - - - -
21/04:30pm 15.0 NW 7 10 1009.2 - 0.0 - - - - - - -
21/04:00pm 16.3 WNW 7 9 1009.2 - 0.0 - - - - - - -
21/03:30pm 16.4 W 7 9 1009.2 - 0.0 - - - - - - -
21/03:00pm 16.4 W 6 8 1009.0 - 0.0 - - - - - - -
21/02:30pm 15.6 W 6 10 1009.1 - 0.0 - - - - - - -
21/02:00pm 15.3 WSW 8 11 1008.8 - 0.0 - - - - - - -
21/01:30pm 15.3 WSW 9 12 1008.7 - 0.0 - - - - - - -
21/01:00pm 15.1 SW 10 13 1008.5 - 0.0 - - - - - - -
21/12:30pm 15.2 SW 9 12 1008.2 - 0.0 - - - - - - -
21/12:00pm 14.6 SW 11 13 1008.1 - 0.0 - - - - - - -
21/11:30am 13.7 SW 12 14 1007.7 - 0.0 - - - - - - -
21/11:00am 12.1 SW 15 17 1007.4 - 0.0 - - - - - - -
21/10:30am 12.0 SW 15 19 1007.3 - 0.0 - - - - - - -
21/10:00am 12.0 SW 16 19 1007.2 - 0.0 - - - - - - -
21/09:30am 11.7 SW 18 24 1006.6 - 0.0 - - - - - - -
21/09:00am 12.1 SW 16 20 1006.3 - 2.0 - - - - - - -
21/08:30am 12.0 SSW 16 19 1005.7 - 2.0 - - - - - - -
21/08:00am 11.8 SW 17 20 1005.5 - 2.0 - - - - - - -
21/07:30am 11.6 SSW 16 19 1004.8 - 2.0 - - - - - - -
21/07:00am 11.1 SW 19 23 1004.4 - 2.0 - - - - - - -
21/06:30am 11.6 SW 19 21 1003.7 - 2.0 - - - - - - -
21/06:00am 11.9 SW 18 21 1003.1 - 2.0 - - - - - - -
21/05:30am 11.9 SSW 18 21 1002.5 - 2.0 - - - - - - -
21/05:00am 12.0 SSW 19 21 1002.2 - 2.0 - - - - - - -
21/04:30am 12.2 SW 20 23 1001.9 - 2.0 - - - - - - -
21/04:00am 12.5 SW 19 22 1001.6 - 2.0 - - - - - - -
21/03:30am 13.0 SW 17 21 1001.3 - 2.0 - - - - - - -
21/03:00am 13.4 WSW 12 15 1001.4 - 2.0 - - - - - - -
21/02:30am 13.6 W 8 11 1001.4 - 2.0 - - - - - - -
21/02:00am 13.6 W 11 13 1001.2 - 2.0 - - - - - - -
21/01:30am 13.9 NW 8 12 1001.5 - 2.0 - - - - - - -
21/01:00am 13.9 NW 12 15 1001.3 - 2.0 - - - - - - -
21/12:30am 14.1 NW 12 18 1001.2 - 2.0 - - - - - - -
21/12:00am 14.5 NNW 16 22 1000.9 - 2.0 - - - - - - -
 
Date/Time
EDT
Temp

°C
Wind Pressure Rain
since 9am
mm
Weather Cloud Vis
km
Sea
Height
m
Swell
Dir
 
Speed
knots
Gust
knots
hPa Trend Height
m
Period
s
Dir
20/11:30pm 14.5 N 19 23 1000.6 - 2.0 - - - - - - -
20/11:00pm 14.5 N 16 19 1000.9 - 2.0 - - - - - - -
20/10:30pm 14.6 N 17 21 1000.8 - 2.0 - - - - - - -
20/10:00pm 14.7 N 15 20 1001.2 - 2.0 - - - - - - -
20/09:30pm 14.8 NNW 13 18 1001.2 - 2.0 - - - - - - -
20/09:00pm 15.1 NNW 14 19 1000.8 - 2.0 - - - - - - -
20/08:30pm 15.3 NNW 13 17 1000.6 - 2.0 - - - - - - -
20/08:00pm 15.4 NNW 16 23 1000.4 - 2.0 - - - - - - -
20/07:30pm 15.5 NNW 18 23 1000.2 - 2.0 - - - - - - -
20/07:00pm 15.4 NNW 19 26 1000.2 - 2.0 - - - - - - -
20/06:38pm 15.6 NNW 15 24 1000.1 - 2.0 - - - - - - -
20/06:30pm 15.5 WNW 6 13 1000.4 - 2.0 - - - - - - -
20/06:00pm 16.0 WNW 2 3 1000.0 - 2.0 Recent precip. - - - - - -
20/05:30pm 15.8 NE 3 5 1000.5 - 2.0 - - - - - - -
20/05:00pm 16.2 ENE 3 5 1000.2 - 1.8 - - - - - - -
20/04:30pm 15.7 NE 6 7 1000.3 - 1.8 - - - - - - -
20/04:00pm 16.6 WSW 1 3 1001.0 - 1.8 - - - - - - -
20/03:30pm 16.3 CALM 0 0 1001.2 - 0.4 - - - - - - -
20/03:00pm 17.6 CALM 0 2 1000.8 - 0.2 Recent precip. - - - - - -
20/02:30pm 17.6 E 6 8 1000.8 - 0.2 - - - - - - -
20/02:00pm 17.5 E 6 8 1001.1 - 0.0 - - - - - - -
20/01:30pm 17.9 E 5 8 1001.1 - 0.0 - - - - - - -
20/01:00pm 18.1 ENE 5 8 1001.6 - 0.0 - - - - - - -
20/12:30pm 17.4 E 6 8 1001.8 - 0.0 - - - - - - -
20/12:00pm 17.4 NE 10 12 1002.2 - 0.0 - - - - - - -
20/11:30am 17.1 ENE 8 10 1003.1 - 0.0 - - - - - - -
20/11:00am 16.3 ENE 8 10 1003.6 - 0.0 - - - - - - -
20/10:30am 15.3 ENE 8 11 1004.2 - 0.0 - - - - - - -
20/10:00am 15.3 ENE 8 9 1004.8 - 0.0 - - - - - - -
20/09:30am 13.8 ENE 9 11 1004.7 - 0.0 - - - - - - -
20/09:00am 13.6 ENE 8 10 1005.3 - 0.4 - - - - - - -
20/08:30am 13.6 NE 6 8 1005.9 - 0.4 - - - - - - -
20/08:00am 13.0 ENE 9 12 1005.1 - 0.4 - - - - - - -
20/07:30am 13.1 NE 9 11 1005.6 - 0.4 - - - - - - -
20/07:00am 12.8 ENE 8 10 1006.1 - 0.4 - - - - - - -
20/06:30am 13.1 ENE 7 10 1006.0 - 0.4 - - - - - - -
20/06:00am 13.7 N 7 8 1006.2 - 0.4 Recent precip. - - - - - -
20/05:30am 13.6 NNW 8 12 1006.5 - 0.4 - - - - - - -
20/05:00am 14.3 NNW 10 13 1006.5 - 0.0 - - - - - - -
20/04:30am 14.2 NW 10 14 1006.8 - 0.0 - - - - - - -
20/04:00am 14.2 N 7 8 1006.1 - 0.0 - - - - - - -
20/03:30am 14.2 N 8 10 1006.3 - 0.0 - - - - - - -
20/03:00am 14.1 NW 9 11 1006.6 - 0.0 - - - - - - -
20/02:30am 14.0 NW 7 11 1007.2 - 0.0 - - - - - - -
20/02:00am 14.2 N 8 10 1006.9 - 0.0 - - - - - - -
20/01:30am 13.7 NNW 4 6 1007.4 - 0.0 - - - - - - -
20/01:00am 13.4 N 3 4 1007.9 - 0.0 - - - - - - -
20/12:30am 13.3 NE 3 5 1007.6 - 0.0 - - - - - - -
20/12:00am 13.9 NNE 7 8 1008.0 - 0.0 - - - - - - -
 
Date/Time
EDT
Temp

°C
Wind Pressure Rain
since 9am
mm
Weather Cloud Vis
km
Sea
Height
m
Swell
Dir
 
Speed
knots
Gust
knots
hPa Trend Height
m
Period
s
Dir
19/11:30pm 14.0 NNE 11 13 1008.4 - 0.0 - - - - - - -
19/11:00pm 14.1 NNW 7 9 1009.8 - 0.0 - - - - - - -
19/10:30pm 14.0 NNW 8 10 1010.1 - 0.0 - - - - - - -
19/10:00pm 14.0 NNW 8 10 1010.1 - 0.0 - - - - - - -
19/09:30pm 13.9 N 11 13 1010.2 - 0.0 - - - - - - -
19/09:00pm 13.8 N 12 15 1010.2 - 0.0 - - - - - - -
19/08:30pm 13.9 N 15 18 1010.3 - 0.0 - - - - - - -
19/08:00pm 13.8 N 14 17 1010.5 - 0.0 - - - - - - -

Other Formats:

Comma delimited format used in spreadsheet applications
http://www.bom.gov.au/fwo/IDT60701/IDT60701.94974.axf

JavaScript Object Notation format (JSON) in row-major order
http://www.bom.gov.au/fwo/IDT60701/IDT60701.94974.json